Andover, Connecticut
Current Conditions -  °F | °C
As of 2:52 PM on Thursday 23 Oct 2014 (Local Time) from KIJD Reporting Station
Overcast Overcast  
Wind Chill: 13°   Ceiling: 1600
Heat Index: 13°   Visibility: 10mi
Dew Point:   Wind: 14mph
Humidity: 75%   Direction: 350°N
Pressure: 29.61"   Gusts: 21mph
Location:  41.74°N, 72.37°W
Report Text: KIJD 231852Z AUTO 35012G18KT 10SM OVC016 13/09 A2961 RMK AO2 SLP027 T01330089
Loading
Personal Weather Stations






























Interactive Weather Map
Tropical Storm Tracking
New forecast layout! Learn more

10-Day Weather Forecast

Advertisements
Track Severe Weather on mobile